createdAt,value
2023-03-17T00:01:58.173Z,56.80
2023-03-17T00:04:29.340Z,61.60
2023-03-17T00:07:00.249Z,79.00
2023-03-17T00:09:31.266Z,89.60
2023-03-17T00:12:02.330Z,89.30
2023-03-17T00:14:33.121Z,88.20
2023-03-17T00:17:04.307Z,78.60
2023-03-17T00:19:35.907Z,84.30
2023-03-17T00:22:08.413Z,93.50
2023-03-17T00:24:39.678Z,94.00
2023-03-17T00:27:12.983Z,103.90
2023-03-17T00:29:44.624Z,99.50
2023-03-17T00:32:18.731Z,102.10
2023-03-17T00:34:49.730Z,94.50
2023-03-17T00:37:20.817Z,85.50
2023-03-17T00:39:53.390Z,96.90
2023-03-17T00:42:24.531Z,98.20
2023-03-17T00:44:55.272Z,89.90
2023-03-17T00:47:26.708Z,94.90
2023-03-17T00:49:57.546Z,91.30
2023-03-17T00:52:28.909Z,95.50
2023-03-17T00:54:59.748Z,86.70
2023-03-17T00:57:31.655Z,90.80
2023-03-17T01:00:03.407Z,88.80
2023-03-17T01:02:34.513Z,96.10
2023-03-17T01:05:07.274Z,100.90
2023-03-17T01:07:39.229Z,104.90
2023-03-17T01:10:14.352Z,89.40
2023-03-17T01:12:46.045Z,83.70
2023-03-17T01:15:17.623Z,82.90
2023-03-17T01:17:49.042Z,84.30
2023-03-17T01:20:21.692Z,88.10
2023-03-17T01:22:53.007Z,87.20
2023-03-17T01:25:24.047Z,85.00
2023-03-17T01:27:56.278Z,85.70
2023-03-17T01:30:29.739Z,90.10
2023-03-17T01:35:33.751Z,89.90
2023-03-17T01:38:05.245Z,81.00
2023-03-17T01:40:39.581Z,89.00
2023-03-17T01:43:20.153Z,82.50
2023-03-17T01:46:04.843Z,90.10
2023-03-17T01:48:38.093Z,81.90
2023-03-17T01:51:10.928Z,86.70
2023-03-17T01:53:42.925Z,87.00
2023-03-17T01:56:15.528Z,96.80
2023-03-17T01:58:49.050Z,85.00
2023-03-17T02:01:21.331Z,92.90
2023-03-17T02:03:52.714Z,91.50
2023-03-17T02:06:23.543Z,93.80
2023-03-17T02:08:54.591Z,92.10
2023-03-17T02:11:25.325Z,99.80
2023-03-17T02:13:56.455Z,85.70
2023-03-17T02:16:27.941Z,84.10
2023-03-17T02:18:58.854Z,83.60
2023-03-17T02:21:43.962Z,87.90
2023-03-17T02:24:28.276Z,77.40
2023-03-17T02:27:05.811Z,80.20
2023-03-17T02:29:38.612Z,78.60
2023-03-17T02:32:10.356Z,82.50
2023-03-17T02:34:41.478Z,80.60
2023-03-17T02:37:12.274Z,79.90
2023-03-17T02:39:43.434Z,72.80
2023-03-17T02:42:14.788Z,66.30
2023-03-17T02:44:45.815Z,74.40
2023-03-17T02:47:16.551Z,70.30
2023-03-17T02:49:47.434Z,62.10
2023-03-17T02:52:18.016Z,56.40
2023-03-17T02:54:49.059Z,66.30
2023-03-17T02:57:19.716Z,69.90
2023-03-17T02:59:51.026Z,56.30
2023-03-17T03:02:21.790Z,63.50
2023-03-17T03:04:53.415Z,67.80
2023-03-17T03:07:24.072Z,56.50
2023-03-17T03:09:55.106Z,60.10
2023-03-17T03:12:25.816Z,57.00
2023-03-17T03:14:57.065Z,54.40
2023-03-17T03:17:27.764Z,62.60
2023-03-17T03:19:58.836Z,56.40
2023-03-17T03:22:29.677Z,53.70
2023-03-17T03:25:00.923Z,58.40
2023-03-17T03:27:32.479Z,61.30
2023-03-17T03:30:07.983Z,65.50
2023-03-17T03:32:38.945Z,80.60
2023-03-17T03:35:10.666Z,80.90
2023-03-17T03:37:41.867Z,78.30
2023-03-17T03:40:13.741Z,73.80
2023-03-17T03:42:44.650Z,73.00
2023-03-17T03:45:16.227Z,80.80
2023-03-17T03:47:46.942Z,72.00
2023-03-17T03:50:17.765Z,73.80
2023-03-17T03:52:48.510Z,71.50
2023-03-17T03:55:19.539Z,81.60
2023-03-17T03:57:50.766Z,64.30
2023-03-17T04:00:22.407Z,70.30
2023-03-17T04:02:53.080Z,86.90
2023-03-17T04:05:24.238Z,87.50
2023-03-17T04:07:55.051Z,89.40
2023-03-17T04:10:26.230Z,87.60
2023-03-17T04:12:57.233Z,83.20
2023-03-17T04:15:28.594Z,81.40
2023-03-17T04:17:59.416Z,83.90
2023-03-17T04:20:31.164Z,81.10
2023-03-17T04:23:02.522Z,85.00
2023-03-17T04:25:34.123Z,80.40
2023-03-17T04:28:04.795Z,83.80
2023-03-17T04:30:35.970Z,73.50
2023-03-17T04:33:07.482Z,71.50
2023-03-17T04:35:39.378Z,80.10
2023-03-17T04:38:10.113Z,61.10
2023-03-17T04:40:41.491Z,70.90
2023-03-17T04:43:11.991Z,67.30
2023-03-17T04:45:42.935Z,65.00
2023-03-17T04:48:13.545Z,72.70
2023-03-17T04:50:45.851Z,72.30
2023-03-17T04:53:16.437Z,71.00
2023-03-17T04:55:47.786Z,77.10
2023-03-17T04:58:30.103Z,77.10
2023-03-17T05:01:02.936Z,73.80
2023-03-17T05:03:33.550Z,69.90
2023-03-17T05:06:05.173Z,82.40
2023-03-17T05:08:36.202Z,65.60
2023-03-17T05:11:07.251Z,81.50
2023-03-17T05:13:38.331Z,80.60
2023-03-17T05:16:10.000Z,83.40
2023-03-17T05:18:42.409Z,87.00
2023-03-17T05:21:13.655Z,86.50
2023-03-17T05:23:45.103Z,92.70
2023-03-17T05:26:16.548Z,87.10
2023-03-17T05:28:48.925Z,90.40
2023-03-17T05:31:20.956Z,89.20
2023-03-17T05:33:51.923Z,80.00
2023-03-17T05:36:22.945Z,87.10
2023-03-17T05:38:53.801Z,86.20
2023-03-17T05:41:24.652Z,90.80
2023-03-17T05:43:55.650Z,87.00
2023-03-17T05:46:28.048Z,89.90
2023-03-17T05:48:58.680Z,99.60
2023-03-17T05:51:29.825Z,87.90
2023-03-17T05:54:01.702Z,84.80
2023-03-17T05:56:34.055Z,81.30
2023-03-17T05:59:04.995Z,89.80
2023-03-17T06:01:36.847Z,83.80
2023-03-17T06:04:08.096Z,106.40
2023-03-17T06:06:39.547Z,98.20
2023-03-17T06:09:10.499Z,91.80
2023-03-17T06:11:42.250Z,101.70
2023-03-17T06:14:13.311Z,91.90
2023-03-17T06:16:44.121Z,89.10
2023-03-17T06:19:15.564Z,77.50
2023-03-17T06:21:46.464Z,84.20
2023-03-17T06:24:17.750Z,75.60
2023-03-17T06:26:48.782Z,76.60
2023-03-17T06:29:20.572Z,87.00
2023-03-17T06:31:52.615Z,78.20
2023-03-17T06:34:24.579Z,74.00
2023-03-17T06:36:56.255Z,70.10
2023-03-17T06:39:27.190Z,65.60
2023-03-17T06:41:57.997Z,68.10
2023-03-17T06:44:28.953Z,64.80
2023-03-17T06:46:59.631Z,61.60
2023-03-17T06:49:30.458Z,65.30
2023-03-17T06:52:01.191Z,60.50
2023-03-17T06:54:32.521Z,66.20
2023-03-17T06:57:03.315Z,56.10
2023-03-17T06:59:34.827Z,60.10
2023-03-17T07:02:05.717Z,53.70
2023-03-17T07:04:38.706Z,55.30
2023-03-17T07:07:09.756Z,60.60
2023-03-17T07:09:42.210Z,67.50
2023-03-17T07:12:13.668Z,60.50
2023-03-17T07:14:44.421Z,55.90
2023-03-17T07:17:15.947Z,55.80
2023-03-17T07:19:47.097Z,42.10
2023-03-17T07:22:18.030Z,50.60
2023-03-17T07:24:49.490Z,40.80
2023-03-17T07:27:22.877Z,45.20
2023-03-17T07:29:54.246Z,49.30
2023-03-17T07:32:25.054Z,35.20
2023-03-17T07:34:56.406Z,38.00
2023-03-17T07:37:27.750Z,49.10
2023-03-17T07:39:58.726Z,41.20
2023-03-17T07:42:30.469Z,40.40
2023-03-17T07:45:01.492Z,36.40
2023-03-17T07:47:32.321Z,39.30
2023-03-17T07:50:03.670Z,36.10
2023-03-17T07:52:34.987Z,37.30
2023-03-17T07:55:08.721Z,41.00
2023-03-17T07:57:40.020Z,30.30
2023-03-17T08:00:13.892Z,34.10
2023-03-17T08:05:14.531Z,33.40
2023-03-17T08:07:45.696Z,34.40
2023-03-17T08:10:16.950Z,37.00
2023-03-17T08:12:52.077Z,35.70
2023-03-17T08:15:23.333Z,44.40
2023-03-17T08:17:54.216Z,35.40
2023-03-17T08:20:25.697Z,34.50
2023-03-17T08:22:57.450Z,36.50
2023-03-17T08:25:28.873Z,39.00
2023-03-17T08:28:00.030Z,37.30
2023-03-17T08:30:33.628Z,42.10
2023-03-17T08:33:05.286Z,36.30
2023-03-17T08:35:37.458Z,38.30
2023-03-17T08:38:09.187Z,32.20
2023-03-17T08:40:41.372Z,35.80
2023-03-17T08:43:11.922Z,31.80
2023-03-17T08:45:43.606Z,45.10
2023-03-17T08:48:14.288Z,32.10
2023-03-17T08:50:45.736Z,35.20
2023-03-17T08:53:16.268Z,34.60
2023-03-17T08:55:47.362Z,35.50
2023-03-17T08:58:20.176Z,28.20
2023-03-17T09:00:52.769Z,30.30
2023-03-17T09:03:23.703Z,30.70
2023-03-17T09:05:55.061Z,36.10
2023-03-17T09:08:26.824Z,30.00
2023-03-17T09:10:58.024Z,30.10
2023-03-17T09:13:29.094Z,23.90
2023-03-17T09:16:00.199Z,22.80
2023-03-17T09:18:31.805Z,22.00
2023-03-17T09:21:03.963Z,26.40
2023-03-17T09:23:34.915Z,16.80
2023-03-17T09:26:06.333Z,21.50
2023-03-17T09:28:37.641Z,16.30
2023-03-17T09:31:11.730Z,18.50
2023-03-17T09:33:43.637Z,12.80
2023-03-17T09:36:15.420Z,12.70
2023-03-17T09:38:46.190Z,12.40
2023-03-17T09:41:29.854Z,10.40
2023-03-17T09:44:06.990Z,10.90
2023-03-17T09:46:41.608Z,12.60
2023-03-17T09:49:14.276Z,9.10
2023-03-17T09:51:46.888Z,10.60
2023-03-17T09:54:20.154Z,10.20
2023-03-17T09:56:52.746Z,9.10
2023-03-17T09:59:30.036Z,14.20
2023-03-17T10:02:01.611Z,10.00
2023-03-17T10:04:32.606Z,11.10
2023-03-17T10:07:05.290Z,12.80
2023-03-17T10:09:40.399Z,13.80
2023-03-17T10:12:17.174Z,13.10
2023-03-17T10:14:52.834Z,12.30
2023-03-17T10:17:25.016Z,9.50
2023-03-17T10:19:59.114Z,13.60
2023-03-17T10:22:33.129Z,8.90
2023-03-17T10:25:07.550Z,8.40
2023-03-17T10:27:39.373Z,8.50
2023-03-17T10:30:15.260Z,9.80
2023-03-17T10:32:48.506Z,9.00
2023-03-17T10:35:20.177Z,9.00
2023-03-17T10:37:58.903Z,8.30
2023-03-17T10:40:37.246Z,9.20
2023-03-17T10:45:44.019Z,6.80
2023-03-17T10:48:19.119Z,9.90
2023-03-17T10:50:50.278Z,10.90
2023-03-17T10:53:28.586Z,8.60
2023-03-17T10:56:01.226Z,9.30
2023-03-17T11:01:06.058Z,10.50
2023-03-17T11:03:40.589Z,11.90
2023-03-17T11:06:12.815Z,10.60
2023-03-17T11:08:46.993Z,9.20
2023-03-17T11:11:25.471Z,9.00
2023-03-17T11:14:04.548Z,12.70
2023-03-17T11:16:36.509Z,10.60
2023-03-17T11:19:10.497Z,8.10
2023-03-17T11:21:48.062Z,12.00
2023-03-17T11:24:21.112Z,9.40
2023-03-17T11:26:55.871Z,8.70
2023-03-17T11:29:33.038Z,10.80
2023-03-17T11:32:11.173Z,10.50
2023-03-17T11:34:48.062Z,11.00
2023-03-17T11:37:26.561Z,7.70
2023-03-17T11:40:03.138Z,9.40
2023-03-17T11:42:38.217Z,9.10
2023-03-17T11:45:14.888Z,9.80
2023-03-17T11:47:52.747Z,8.70
2023-03-17T11:50:29.929Z,11.30
2023-03-17T11:53:05.542Z,9.50
2023-03-17T11:55:43.162Z,9.40
2023-03-17T11:58:15.934Z,10.40
2023-03-17T12:00:51.026Z,8.40
2023-03-17T12:03:25.442Z,10.60
2023-03-17T12:05:58.614Z,7.90
2023-03-17T12:08:36.401Z,8.90
2023-03-17T12:11:11.166Z,12.10
2023-03-17T12:13:46.468Z,10.70
2023-03-17T12:16:20.045Z,9.30
2023-03-17T12:18:54.782Z,7.70
2023-03-17T12:21:28.509Z,12.00
2023-03-17T12:24:02.145Z,10.50
2023-03-17T12:26:36.818Z,10.20
2023-03-17T12:29:13.065Z,8.20
2023-03-17T12:31:46.087Z,10.50
2023-03-17T12:34:21.231Z,8.90
2023-03-17T12:36:53.043Z,11.80
2023-03-17T12:39:26.210Z,9.60
2023-03-17T12:44:32.670Z,13.10
2023-03-17T12:47:17.787Z,7.60
2023-03-17T12:49:55.064Z,10.90
2023-03-17T12:52:31.182Z,10.90
2023-03-17T12:55:04.157Z,8.60
2023-03-17T12:57:40.274Z,10.10
2023-03-17T13:00:21.503Z,13.50
2023-03-17T13:02:53.538Z,8.80
2023-03-17T13:05:33.060Z,8.50
2023-03-17T13:08:06.874Z,8.80
2023-03-17T13:10:42.929Z,10.00
2023-03-17T13:13:25.738Z,8.70
2023-03-17T13:15:58.512Z,9.20
2023-03-17T13:21:12.313Z,9.40
2023-03-17T13:23:44.927Z,10.60
2023-03-17T13:26:19.382Z,8.40
2023-03-17T13:28:51.557Z,10.30
2023-03-17T13:31:34.250Z,9.50
2023-03-17T13:34:13.160Z,8.40
2023-03-17T13:36:49.132Z,7.90
2023-03-17T13:39:29.940Z,9.60
2023-03-17T13:42:17.604Z,10.60
2023-03-17T13:45:08.741Z,8.10
2023-03-17T13:47:42.539Z,10.10
2023-03-17T13:50:16.672Z,9.00
2023-03-17T13:52:50.703Z,13.10
2023-03-17T13:55:35.452Z,10.90
2023-03-17T13:58:24.050Z,8.20
2023-03-17T14:00:59.857Z,8.20
2023-03-17T14:03:35.623Z,11.90
2023-03-17T14:06:08.729Z,9.70
2023-03-17T14:08:41.135Z,8.00
2023-03-17T14:11:19.237Z,10.20
2023-03-17T14:13:53.930Z,11.30
2023-03-17T14:16:28.237Z,17.40
2023-03-17T14:19:00.984Z,9.00
2023-03-17T14:21:34.383Z,9.20
2023-03-17T14:24:17.498Z,9.80
2023-03-17T14:29:21.131Z,9.70
2023-03-17T14:31:54.038Z,12.70
2023-03-17T14:34:25.467Z,9.70
2023-03-17T14:37:00.374Z,11.20
2023-03-17T14:39:31.124Z,11.30
2023-03-17T14:42:06.150Z,11.40
2023-03-17T14:44:40.948Z,9.60
2023-03-17T14:47:17.937Z,9.10
2023-03-17T14:49:49.064Z,9.20
2023-03-17T14:52:25.476Z,11.10
2023-03-17T14:54:59.312Z,9.80
2023-03-17T14:57:33.523Z,11.60
2023-03-17T15:00:16.183Z,11.20
2023-03-17T15:02:55.493Z,9.10
2023-03-17T15:05:29.672Z,8.70
2023-03-17T15:08:01.309Z,7.60
2023-03-17T15:10:42.531Z,8.50
2023-03-17T15:13:14.368Z,8.30
2023-03-17T15:15:45.849Z,8.00
2023-03-17T15:18:17.460Z,9.10
2023-03-17T15:20:48.396Z,10.20
2023-03-17T15:23:20.983Z,7.30
2023-03-17T15:25:55.991Z,8.60
2023-03-17T15:28:28.124Z,9.90
2023-03-17T15:31:06.933Z,7.60
2023-03-17T15:33:39.479Z,8.50
2023-03-17T15:36:22.003Z,8.50
2023-03-17T15:39:02.560Z,7.00
2023-03-17T15:41:37.263Z,10.20
2023-03-17T15:44:10.765Z,8.60
2023-03-17T15:46:41.949Z,8.10
2023-03-17T15:49:14.004Z,11.20
2023-03-17T15:51:44.599Z,7.70
2023-03-17T15:54:17.434Z,11.10
2023-03-17T15:56:48.470Z,8.00
2023-03-17T15:59:19.757Z,8.00
2023-03-17T16:01:50.816Z,12.20
2023-03-17T16:04:22.309Z,9.90
2023-03-17T16:06:52.983Z,7.60
2023-03-17T16:09:24.123Z,9.40
2023-03-17T16:11:54.546Z,8.60
2023-03-17T16:14:26.221Z,8.50
2023-03-17T16:16:56.981Z,14.10
2023-03-17T16:19:31.124Z,14.20
2023-03-17T16:22:01.887Z,9.90
2023-03-17T16:31:34.330Z,10.20
2023-03-17T16:34:15.094Z,9.10
2023-03-17T16:36:46.812Z,11.60
2023-03-17T16:39:19.060Z,12.90
2023-03-17T16:41:50.964Z,9.40
2023-03-17T16:44:22.357Z,11.90
2023-03-17T16:46:54.241Z,9.20
2023-03-17T16:49:26.530Z,9.70
2023-03-17T16:51:58.017Z,10.10
2023-03-17T16:54:35.661Z,10.80
2023-03-17T16:57:08.077Z,11.10
2023-03-17T16:59:38.861Z,9.60
2023-03-17T17:02:15.812Z,10.30
2023-03-17T17:04:46.629Z,9.20
2023-03-17T17:07:17.805Z,15.30
2023-03-17T17:09:48.607Z,12.30
2023-03-17T17:12:19.584Z,10.60
2023-03-17T17:14:50.352Z,10.70
2023-03-17T17:17:21.653Z,16.40
2023-03-17T17:19:52.442Z,12.20
2023-03-17T17:22:23.477Z,11.30
2023-03-17T17:24:54.213Z,11.90
2023-03-17T17:27:26.792Z,13.30
2023-03-17T17:29:57.632Z,15.70
2023-03-17T17:32:28.932Z,13.60
2023-03-17T17:34:59.810Z,12.80
2023-03-17T17:37:31.372Z,15.10
2023-03-17T17:40:02.414Z,15.20
2023-03-17T17:42:33.846Z,14.50
2023-03-17T17:45:04.667Z,14.00
2023-03-17T17:47:36.657Z,12.60
2023-03-17T17:50:08.668Z,14.20
2023-03-17T17:52:40.268Z,13.50
2023-03-17T17:55:11.375Z,13.60
2023-03-17T17:57:42.855Z,11.90
2023-03-17T18:00:17.324Z,11.80
2023-03-17T18:02:48.848Z,13.70
2023-03-17T18:05:19.870Z,11.30
2023-03-17T18:07:51.337Z,15.70
2023-03-17T18:10:24.161Z,14.20
2023-03-17T18:12:56.368Z,14.10
2023-03-17T18:15:27.910Z,13.70
2023-03-17T18:17:59.398Z,14.40
2023-03-17T18:20:30.643Z,13.00
2023-03-17T18:23:02.484Z,15.10
2023-03-17T18:25:33.421Z,12.90
2023-03-17T18:28:04.658Z,17.10
2023-03-17T18:30:35.852Z,16.50
2023-03-17T18:33:08.981Z,14.10
2023-03-17T18:38:10.341Z,15.30
2023-03-17T18:40:41.808Z,17.00
2023-03-17T18:43:13.766Z,14.70
2023-03-17T18:45:44.735Z,15.50
2023-03-17T18:48:17.282Z,16.40
2023-03-17T18:50:48.219Z,17.00
2023-03-17T18:53:19.476Z,20.00
2023-03-17T18:55:50.499Z,18.00
2023-03-17T18:58:21.845Z,20.70
2023-03-17T19:00:58.384Z,18.30
2023-03-17T19:03:30.058Z,16.90
2023-03-17T19:06:08.285Z,20.00
2023-03-17T19:08:40.171Z,19.30
2023-03-17T19:11:12.080Z,18.20
2023-03-17T19:13:43.760Z,19.10
2023-03-17T19:16:14.765Z,19.70
2023-03-17T19:18:46.661Z,17.90
2023-03-17T19:21:17.295Z,21.60
2023-03-17T19:23:48.767Z,18.00
2023-03-17T19:26:19.778Z,18.00
2023-03-17T19:28:50.857Z,19.70
2023-03-17T19:31:21.637Z,22.00
2023-03-17T19:33:55.832Z,22.40
2023-03-17T19:36:26.397Z,24.10
2023-03-17T19:38:58.060Z,25.70
2023-03-17T19:41:32.421Z,18.40
2023-03-17T19:44:03.754Z,19.30
2023-03-17T19:46:34.784Z,24.50
2023-03-17T19:49:06.437Z,18.80
2023-03-17T19:51:37.349Z,21.30
2023-03-17T19:54:08.523Z,20.90
2023-03-17T19:56:39.898Z,21.20
2023-03-17T19:59:11.216Z,23.60
2023-03-17T20:01:42.866Z,28.50
2023-03-17T20:04:18.120Z,23.90
2023-03-17T20:06:49.111Z,23.80
2023-03-17T20:09:20.363Z,22.50
2023-03-17T20:11:52.640Z,22.70
2023-03-17T20:14:24.127Z,22.20
2023-03-17T20:16:55.365Z,23.40
2023-03-17T20:19:26.642Z,24.00
2023-03-17T20:21:58.639Z,22.90
2023-03-17T20:24:31.812Z,21.90
2023-03-17T20:27:02.358Z,23.30
2023-03-17T20:29:33.711Z,23.60
2023-03-17T20:32:04.952Z,21.30
2023-03-17T20:34:36.501Z,24.40
2023-03-17T20:37:07.697Z,19.80
2023-03-17T20:39:38.724Z,20.20
2023-03-17T20:42:14.607Z,20.40
2023-03-17T20:44:45.904Z,19.30
2023-03-17T20:47:16.952Z,19.40
2023-03-17T20:49:48.369Z,20.30
2023-03-17T20:52:19.009Z,21.00
2023-03-17T20:54:50.053Z,30.40
2023-03-17T20:57:20.852Z,21.00
2023-03-17T20:59:52.805Z,19.00
2023-03-17T21:02:24.094Z,21.20
2023-03-17T21:04:55.649Z,22.00
2023-03-17T21:07:26.581Z,20.00
2023-03-17T21:09:58.088Z,22.60
2023-03-17T21:12:28.944Z,20.50
2023-03-17T21:15:00.572Z,24.70
2023-03-17T21:17:31.230Z,23.80
2023-03-17T21:20:02.502Z,23.60
2023-03-17T21:22:34.367Z,20.20
2023-03-17T21:25:05.756Z,21.30
2023-03-17T21:27:37.078Z,22.20
2023-03-17T21:30:09.944Z,20.30
2023-03-17T21:32:41.887Z,20.80
2023-03-17T21:35:13.449Z,20.60
2023-03-17T21:37:44.204Z,22.40
2023-03-17T21:40:16.129Z,18.60
2023-03-17T21:42:47.388Z,18.60
2023-03-17T21:45:19.168Z,24.40
2023-03-17T21:47:50.287Z,24.60
2023-03-17T21:50:21.940Z,29.00
2023-03-17T21:52:52.814Z,22.40
2023-03-17T21:55:24.231Z,21.70
2023-03-17T21:57:55.807Z,18.20
2023-03-17T22:00:35.943Z,18.20
2023-03-17T22:03:13.801Z,21.80
2023-03-17T22:05:47.574Z,20.60
2023-03-17T22:12:50.869Z,27.50
2023-03-17T22:15:21.605Z,20.60
2023-03-17T22:17:53.562Z,21.80
2023-03-17T22:20:24.739Z,23.90
2023-03-17T22:22:56.275Z,21.10
2023-03-17T22:25:27.211Z,22.50
2023-03-17T22:27:57.848Z,23.70
2023-03-17T22:30:28.692Z,22.20
2023-03-17T22:32:59.697Z,25.20
2023-03-17T22:35:30.728Z,21.10
2023-03-17T22:38:02.101Z,22.40
2023-03-17T22:40:33.807Z,21.50
2023-03-17T22:43:04.813Z,21.50
2023-03-17T22:45:35.797Z,21.90
2023-03-17T22:48:07.343Z,19.70
2023-03-17T22:50:38.216Z,23.30
2023-03-17T22:53:09.460Z,25.10
2023-03-17T22:55:45.330Z,22.40
2023-03-17T22:58:16.161Z,26.40
2023-03-17T23:00:48.827Z,22.90
2023-03-17T23:03:20.166Z,25.00
2023-03-17T23:05:51.954Z,24.90
2023-03-17T23:08:23.171Z,27.20
2023-03-17T23:10:54.332Z,23.50
2023-03-17T23:13:25.573Z,29.10
2023-03-17T23:15:56.812Z,26.30
2023-03-17T23:18:27.792Z,31.50
2023-03-17T23:20:59.114Z,29.00
2023-03-17T23:23:30.372Z,30.80
2023-03-17T23:26:01.183Z,32.30
2023-03-17T23:28:32.840Z,31.50
2023-03-17T23:31:04.355Z,34.40
2023-03-17T23:33:35.270Z,38.00
2023-03-17T23:43:06.793Z,40.70
2023-03-17T23:45:37.655Z,33.30
2023-03-17T23:48:08.685Z,41.30
2023-03-17T23:50:41.030Z,43.70
2023-03-17T23:53:12.205Z,43.30
2023-03-17T23:55:42.729Z,37.50
2023-03-17T23:58:14.182Z,34.30
